Marshall, WA (99020)

7:12 AM PDT on August 03, 2015 (GMT -0700)
APRSWXNET | | Change Station
CLOSE
Current Station
Personal Weather Station
Location: Spangle, WA
Elevation: 2344 ft
Nearby Weather Stations

Elev 2344 ft 47.48 °N, 117.46 °W | Updated 26 minutes ago

Partly Cloudy
Partly Cloudy
59 °F
Feels Like 59 °F
N
0
Wind Variable Wind from SE
Gusts 0.0 mph

Today
High -- | Low -- °F
--% Chance of Precip.
Yesterday
High -- | Low -- °F
Precip. -- in
5:29 AM 8:21 PM
Waning Gibbous, 86% visible
Pressure 29.75 in
Visibility 6.0 miles
Clouds Few 15000 ft
Mostly Cloudy 18000 ft
Mostly Cloudy 25000 ft
Dew Point 32 °F
Humidity 36%
Rainfall in
Snow Depth Not available.
UV 0 out of 12
Pollen 6.60 out of 12
Air Quality Not available.
Flu Activity Not available.
METAR KGEG 031353Z 12004KT 6SM FU FEW150 BKN180 BKN250 21/M01 A2982 RMK AO2 SLP075 FU BKN180 T02061006

More Conditions Fewer Conditions

Pressure 29.75 in
Visibility 6.0 miles
Clouds Few 15000 ft
Mostly Cloudy 18000 ft
Mostly Cloudy 25000 ft
Dew Point 32 °F
Humidity 36%
Rainfall in
Snow Depth Not available.
UV 0 out of 12
Pollen 6.60 out of 12
Air Quality Not available.
Flu Activity Not available.
METAR KGEG 031353Z 12004KT 6SM FU FEW150 BKN180 BKN250 21/M01 A2982 RMK AO2 SLP075 FU BKN180 T02061006

More Conditions Fewer Conditions

10-Day Weather Forecast

×

Almanac

Astronomy

Aug. 03, 2015 Rise Set
Actual Time
Civil Twilight
Nautical Twilight
Astronomical Twilight
Moon
Length of Visible Light
Length of Day
Tomorrow will be .
, % of the Moon is Illuminated

Today's Extremes

State Highs State Lows

Community

WunderPhotos

Upload Photos

1,843,636 photos uploaded!

WunderBlogs® & News

Nearby

Air Quality

  Air Quality AQ Index Pollutant
Not available.

Snow Depth

Station Depth Elevation

Earthquake Activity

City Distance Mag. Time & Date
Minimum magnitude displayed is 2.5.

Coastal Water Temperatures

Place Temperature

Stations

Nearby Weather Stations

Station Location Temp. Windchill Dew Point Humidity Wind Precip. Elev Updated Type